EDW334A LSZH-LGKL
Flight info
| Callsign | EDW334A |
|---|---|
| Flight time | N/A |
| Altitude | 33000 |
| Route | DEGES Z2 XEBIX L607 ELMEM N606 GIRIS DCT NIVAS DCT PEVAL DCT IPKIS DCT AIOSA DCT NOSTO UL612 TRL Y115 IPTAG |
| Aircraft | A320/M-SDE2E3FGHIJ1RWXY/LB1 |
Departure
| Time | N/A |
|---|---|
| Airport | Zürich Airport (LSZH) |
Arrival
| Time | 2026-05-06 10:01 |
|---|---|
| Airport | Kalamata Airport (LGKL) |
| Time | Latitude | Longitude | Altitude | Speed | Heading |
|---|---|---|---|---|---|
| 2026-05-06 09:07 | 40.71202 | 18.27340 | 33064 ft | 464 kts | 150° |
| 2026-05-06 09:08 | 40.65729 | 18.31855 | 33061 ft | 464 kts | 150° |
| 2026-05-06 09:08 | 40.60294 | 18.36325 | 33059 ft | 464 kts | 150° |
| 2026-05-06 09:09 | 40.54820 | 18.40812 | 33059 ft | 464 kts | 150° |
| 2026-05-06 09:09 | 40.49345 | 18.45291 | 33062 ft | 463 kts | 150° |
| 2026-05-06 09:10 | 40.43867 | 18.49768 | 33064 ft | 464 kts | 150° |
| 2026-05-06 09:10 | 40.38383 | 18.54242 | 33068 ft | 464 kts | 150° |
| 2026-05-06 09:11 | 40.32904 | 18.58713 | 33070 ft | 464 kts | 150° |
| 2026-05-06 09:11 | 40.27415 | 18.63172 | 33072 ft | 464 kts | 150° |
| 2026-05-06 09:12 | 40.21923 | 18.67617 | 33073 ft | 464 kts | 150° |
| 2026-05-06 09:12 | 40.16429 | 18.72061 | 33074 ft | 464 kts | 150° |
| 2026-05-06 09:13 | 40.10931 | 18.76496 | 33078 ft | 465 kts | 150° |
| 2026-05-06 09:13 | 40.05440 | 18.80933 | 33104 ft | 463 kts | 152° |
| 2026-05-06 09:14 | 39.99975 | 18.85337 | 33112 ft | 461 kts | 152° |
| 2026-05-06 09:14 | 39.94523 | 18.89710 | 33113 ft | 459 kts | 152° |
| 2026-05-06 09:15 | 39.89079 | 18.94063 | 33109 ft | 459 kts | 152° |
| 2026-05-06 09:15 | 39.83655 | 18.98423 | 33102 ft | 459 kts | 149° |
| 2026-05-06 09:16 | 39.78918 | 19.04033 | 33094 ft | 464 kts | 133° |
| 2026-05-06 09:16 | 39.74658 | 19.10355 | 33088 ft | 465 kts | 134° |
| 2026-05-06 09:17 | 39.70378 | 19.16647 | 33084 ft | 465 kts | 134° |
| 2026-05-06 09:17 | 39.66088 | 19.22941 | 33087 ft | 466 kts | 134° |
| 2026-05-06 09:18 | 39.61793 | 19.29240 | 33088 ft | 466 kts | 134° |
| 2026-05-06 09:18 | 39.57478 | 19.35520 | 33091 ft | 466 kts | 135° |
| 2026-05-06 09:19 | 39.53001 | 19.41607 | 33094 ft | 467 kts | 136° |
| 2026-05-06 09:19 | 39.48427 | 19.47571 | 33098 ft | 467 kts | 137° |
| 2026-05-06 09:20 | 39.43853 | 19.53548 | 33101 ft | 468 kts | 136° |
| 2026-05-06 09:20 | 39.39306 | 19.59569 | 33105 ft | 468 kts | 136° |
| 2026-05-06 09:21 | 39.34763 | 19.65614 | 33096 ft | 469 kts | 136° |
| 2026-05-06 09:21 | 39.30199 | 19.71629 | 33110 ft | 469 kts | 136° |
| 2026-05-06 09:22 | 39.25630 | 19.77621 | 33112 ft | 468 kts | 136° |
| 2026-05-06 09:22 | 39.21071 | 19.83614 | 33112 ft | 468 kts | 136° |
| 2026-05-06 09:23 | 39.16515 | 19.89604 | 33112 ft | 468 kts | 136° |
| 2026-05-06 09:23 | 39.11960 | 19.95579 | 33112 ft | 467 kts | 136° |
| 2026-05-06 09:24 | 39.07400 | 20.01535 | 33112 ft | 467 kts | 136° |
| 2026-05-06 09:24 | 39.02831 | 20.07491 | 33103 ft | 468 kts | 136° |
| 2026-05-06 09:25 | 38.98242 | 20.13455 | 33103 ft | 469 kts | 136° |
| 2026-05-06 09:25 | 38.93651 | 20.19424 | 33107 ft | 470 kts | 136° |
| 2026-05-06 09:26 | 38.89059 | 20.25394 | 33111 ft | 470 kts | 136° |
| 2026-05-06 09:26 | 38.84458 | 20.31354 | 33114 ft | 470 kts | 136° |
| 2026-05-06 09:27 | 38.79851 | 20.37294 | 33117 ft | 470 kts | 136° |
| 2026-05-06 09:27 | 38.75246 | 20.43232 | 33120 ft | 470 kts | 136° |
| 2026-05-06 09:28 | 38.71414 | 20.48165 | 33122 ft | 470 kts | 136° |
| 2026-05-06 09:28 | 38.66771 | 20.54134 | 33123 ft | 470 kts | 136° |
| 2026-05-06 09:29 | 38.62186 | 20.60016 | 33124 ft | 470 kts | 136° |
| 2026-05-06 09:29 | 38.57566 | 20.65929 | 33124 ft | 470 kts | 136° |
| 2026-05-06 09:30 | 38.52942 | 20.71840 | 33127 ft | 470 kts | 136° |
| 2026-05-06 09:30 | 38.48313 | 20.77737 | 33123 ft | 470 kts | 136° |
| 2026-05-06 09:31 | 38.43675 | 20.83627 | 33132 ft | 470 kts | 136° |
| 2026-05-06 09:31 | 38.39031 | 20.89527 | 33138 ft | 472 kts | 136° |
| 2026-05-06 09:32 | 38.34377 | 20.95440 | 33137 ft | 472 kts | 136° |
| 2026-05-06 09:32 | 38.29715 | 21.01343 | 33139 ft | 473 kts | 136° |
| 2026-05-06 09:33 | 38.25036 | 21.07244 | 33137 ft | 474 kts | 136° |
| 2026-05-06 09:33 | 38.20352 | 21.13141 | 33134 ft | 474 kts | 136° |
| 2026-05-06 09:34 | 38.15671 | 21.19033 | 33128 ft | 474 kts | 136° |
| 2026-05-06 09:34 | 38.10983 | 21.24926 | 33123 ft | 474 kts | 136° |
| 2026-05-06 09:35 | 38.06288 | 21.30807 | 33122 ft | 475 kts | 136° |
| 2026-05-06 09:35 | 38.01582 | 21.36687 | 33120 ft | 475 kts | 136° |
| 2026-05-06 09:36 | 37.96871 | 21.42567 | 33123 ft | 476 kts | 136° |
| 2026-05-06 09:36 | 37.92151 | 21.48444 | 33124 ft | 476 kts | 136° |
| 2026-05-06 09:37 | 37.87426 | 21.54317 | 33122 ft | 476 kts | 136° |
| 2026-05-06 09:37 | 37.82705 | 21.60187 | 33123 ft | 476 kts | 136° |
| 2026-05-06 09:38 | 37.77975 | 21.66051 | 33121 ft | 476 kts | 136° |
| 2026-05-06 09:38 | 37.72837 | 21.71225 | 33120 ft | 473 kts | 157° |
| 2026-05-06 09:39 | 37.66656 | 21.74261 | 33127 ft | 480 kts | 162° |
| 2026-05-06 09:39 | 37.60392 | 21.77209 | 33128 ft | 480 kts | 162° |
| 2026-05-06 09:40 | 37.54131 | 21.80152 | 33120 ft | 480 kts | 162° |
| 2026-05-06 09:40 | 37.44829 | 21.84533 | 32028 ft | 467 kts | 162° |
| 2026-05-06 09:41 | 37.41787 | 21.85965 | 30855 ft | 465 kts | 162° |
| 2026-05-06 09:41 | 37.38778 | 21.87381 | 29863 ft | 458 kts | 161° |
| 2026-05-06 09:41 | 37.35813 | 21.88775 | 28902 ft | 452 kts | 161° |
| 2026-05-06 09:41 | 37.32890 | 21.90148 | 27927 ft | 446 kts | 161° |
| 2026-05-06 09:42 | 37.30000 | 21.91503 | 26931 ft | 441 kts | 161° |
| 2026-05-06 09:42 | 37.27145 | 21.92838 | 25956 ft | 435 kts | 161° |
| 2026-05-06 09:42 | 37.24317 | 21.94157 | 24980 ft | 431 kts | 161° |
| 2026-05-06 09:42 | 37.21521 | 21.95461 | 24030 ft | 427 kts | 161° |
| 2026-05-06 09:43 | 37.18750 | 21.96754 | 23108 ft | 422 kts | 161° |
| 2026-05-06 09:43 | 37.16015 | 21.98030 | 22232 ft | 417 kts | 161° |
| 2026-05-06 09:43 | 37.13318 | 21.99288 | 21395 ft | 410 kts | 161° |
| 2026-05-06 09:43 | 37.10697 | 22.00510 | 20550 ft | 404 kts | 161° |
| 2026-05-06 09:44 | 37.08029 | 22.01747 | 19461 ft | 415 kts | 161° |
| 2026-05-06 09:44 | 37.05424 | 22.03221 | 19208 ft | 407 kts | 147° |
| 2026-05-06 09:44 | 37.03418 | 22.05650 | 18815 ft | 401 kts | 122° |
| 2026-05-06 09:44 | 37.02367 | 22.08816 | 18375 ft | 392 kts | 97° |
| 2026-05-06 09:45 | 37.02443 | 22.12141 | 17968 ft | 378 kts | 71° |
| 2026-05-06 09:45 | 37.03587 | 22.14992 | 17593 ft | 361 kts | 45° |
| 2026-05-06 09:45 | 37.05524 | 22.16827 | 17259 ft | 343 kts | 18° |
| 2026-05-06 09:45 | 37.07771 | 22.17683 | 16918 ft | 335 kts | 12° |
| 2026-05-06 09:46 | 37.10000 | 22.18504 | 16536 ft | 333 kts | 14° |
| 2026-05-06 09:46 | 37.12192 | 22.19429 | 16159 ft | 331 kts | 16° |
| 2026-05-06 09:46 | 37.14337 | 22.20441 | 15792 ft | 329 kts | 18° |
| 2026-05-06 09:46 | 37.16443 | 22.21511 | 15509 ft | 321 kts | 19° |
| 2026-05-06 09:47 | 37.18454 | 22.22571 | 15130 ft | 309 kts | 19° |
| 2026-05-06 09:47 | 37.20418 | 22.23613 | 14736 ft | 305 kts | 19° |
| 2026-05-06 09:47 | 37.22370 | 22.24648 | 14396 ft | 304 kts | 19° |
| 2026-05-06 09:47 | 37.24318 | 22.25672 | 14053 ft | 303 kts | 19° |
| 2026-05-06 09:48 | 37.26273 | 22.26691 | 13687 ft | 304 kts | 19° |
| 2026-05-06 09:48 | 37.28224 | 22.27705 | 13329 ft | 303 kts | 20° |
| 2026-05-06 09:48 | 37.30160 | 22.28710 | 12986 ft | 300 kts | 20° |
| 2026-05-06 09:48 | 37.32086 | 22.29675 | 12632 ft | 295 kts | 14° |
| 2026-05-06 09:49 | 37.34088 | 22.30057 | 12252 ft | 290 kts | 356° |
| 2026-05-06 09:49 | 37.36060 | 22.29656 | 11881 ft | 286 kts | 340° |
| 2026-05-06 09:49 | 37.37828 | 22.28548 | 11506 ft | 285 kts | 323° |
| 2026-05-06 09:49 | 37.39247 | 22.26845 | 11094 ft | 279 kts | 307° |
| 2026-05-06 09:50 | 37.40167 | 22.24766 | 10718 ft | 268 kts | 290° |
| 2026-05-06 09:50 | 37.40572 | 22.22533 | 10340 ft | 258 kts | 275° |
| 2026-05-06 09:50 | 37.40619 | 22.20296 | 9979 ft | 255 kts | 271° |
| 2026-05-06 09:50 | 37.40652 | 22.18075 | 9602 ft | 253 kts | 271° |
| 2026-05-06 09:51 | 37.40674 | 22.15862 | 9328 ft | 253 kts | 271° |
| 2026-05-06 09:51 | 37.40691 | 22.13639 | 9077 ft | 255 kts | 270° |
| 2026-05-06 09:51 | 37.40707 | 22.11425 | 8723 ft | 253 kts | 270° |
| 2026-05-06 09:51 | 37.40723 | 22.09214 | 8420 ft | 252 kts | 270° |
| 2026-05-06 09:52 | 37.40737 | 22.07047 | 8096 ft | 243 kts | 270° |
| 2026-05-06 09:52 | 37.40750 | 22.04964 | 7772 ft | 233 kts | 270° |
| 2026-05-06 09:52 | 37.40764 | 22.02955 | 7468 ft | 227 kts | 270° |
| 2026-05-06 09:52 | 37.40777 | 22.00964 | 7181 ft | 227 kts | 270° |
| 2026-05-06 09:53 | 37.40791 | 21.99007 | 6859 ft | 220 kts | 270° |
| 2026-05-06 09:53 | 37.40569 | 21.97155 | 6529 ft | 211 kts | 243° |
| 2026-05-06 09:53 | 37.39648 | 21.95796 | 6237 ft | 203 kts | 210° |
| 2026-05-06 09:53 | 37.38322 | 21.95284 | 6109 ft | 201 kts | 180° |
| 2026-05-06 09:54 | 37.36983 | 21.95606 | 6037 ft | 190 kts | 165° |
| 2026-05-06 09:54 | 37.35717 | 21.95983 | 5711 ft | 184 kts | 169° |
| 2026-05-06 09:54 | 37.34484 | 21.96268 | 5388 ft | 177 kts | 170° |
| 2026-05-06 09:54 | 37.33278 | 21.96528 | 5096 ft | 175 kts | 170° |
| 2026-05-06 09:55 | 37.32086 | 21.96786 | 4774 ft | 172 kts | 171° |
| 2026-05-06 09:55 | 37.30907 | 21.97044 | 4444 ft | 172 kts | 171° |
| 2026-05-06 09:55 | 37.29732 | 21.97301 | 4147 ft | 170 kts | 171° |
| 2026-05-06 09:55 | 37.28564 | 21.97558 | 3924 ft | 170 kts | 171° |
| 2026-05-06 09:56 | 37.27395 | 21.97816 | 3746 ft | 171 kts | 171° |
| 2026-05-06 09:56 | 37.26239 | 21.98070 | 3549 ft | 171 kts | 171° |
| 2026-05-06 09:56 | 37.25069 | 21.98326 | 3359 ft | 171 kts | 171° |
| 2026-05-06 09:56 | 37.23898 | 21.98585 | 3173 ft | 171 kts | 171° |
| 2026-05-06 09:57 | 37.22714 | 21.98846 | 2966 ft | 170 kts | 171° |
| 2026-05-06 09:57 | 37.21545 | 21.99102 | 2760 ft | 170 kts | 171° |
| 2026-05-06 09:57 | 37.20386 | 21.99359 | 2556 ft | 169 kts | 171° |
| 2026-05-06 09:57 | 37.19238 | 21.99619 | 2379 ft | 166 kts | 170° |
| 2026-05-06 09:58 | 37.18167 | 21.99871 | 2313 ft | 150 kts | 171° |
| 2026-05-06 09:58 | 37.17165 | 22.00097 | 2100 ft | 143 kts | 171° |
| 2026-05-06 09:58 | 37.16200 | 22.00324 | 1863 ft | 140 kts | 169° |
| 2026-05-06 09:58 | 37.15235 | 22.00561 | 1681 ft | 142 kts | 169° |
| 2026-05-06 09:59 | 37.14263 | 22.00764 | 1477 ft | 139 kts | 169° |
| 2026-05-06 09:59 | 37.13325 | 22.00977 | 1264 ft | 136 kts | 169° |
| 2026-05-06 09:59 | 37.12410 | 22.01194 | 1056 ft | 135 kts | 168° |
| 2026-05-06 09:59 | 37.11485 | 22.01431 | 834 ft | 137 kts | 168° |
| 2026-05-06 10:00 | 37.10549 | 22.01669 | 614 ft | 137 kts | 168° |
| 2026-05-06 10:00 | 37.09613 | 22.01889 | 403 ft | 136 kts | 169° |
| 2026-05-06 10:00 | 37.08680 | 22.02103 | 203 ft | 136 kts | 169° |
| 2026-05-06 10:00 | 37.07736 | 22.02329 | 45 ft | 139 kts | 168° |
| 2026-05-06 10:01 | 37.06893 | 22.02529 | 34 ft | 99 kts | 170° |
| 2026-05-06 10:01 | 37.06388 | 22.02646 | 31 ft | 50 kts | 169° |
| 2026-05-06 10:01 | 37.06130 | 22.02706 | 30 ft | 21 kts | 169° |
| 2026-05-06 10:01 | 37.06059 | 22.02725 | 32 ft | 0 kts | 163° |
| 2026-05-06 10:02 | 37.06038 | 22.02728 | 32 ft | 12 kts | 174° |
| 2026-05-06 10:02 | 37.05938 | 22.02749 | 32 ft | 16 kts | 169° |
| 2026-05-06 10:02 | 37.05817 | 22.02779 | 30 ft | 19 kts | 169° |
| 2026-05-06 10:02 | 37.05767 | 22.02850 | 31 ft | 11 kts | 71° |
| 2026-05-06 10:03 | 37.05768 | 22.02916 | 32 ft | 6 kts | 147° |
| 2026-05-06 10:03 | 37.05677 | 22.02936 | 33 ft | 21 kts | 170° |
| 2026-05-06 10:03 | 37.05553 | 22.02976 | 34 ft | 14 kts | 129° |
| 2026-05-06 10:03 | 37.05525 | 22.03106 | 35 ft | 17 kts | 104° |
| 2026-05-06 10:04 | 37.05505 | 22.03223 | 35 ft | 10 kts | 100° |
| 2026-05-06 10:04 | 37.05518 | 22.03289 | 34 ft | 9 kts | 35° |
| 2026-05-06 10:04 | 37.05532 | 22.03298 | 35 ft | 0 kts | 27° |
| 2026-05-06 10:04 | 37.05543 | 22.03317 | 34 ft | 3 kts | 74° |
| 2026-05-06 10:05 | 37.05535 | 22.03336 | 35 ft | 2 kts | 118° |
| 2026-05-06 10:05 | 37.05534 | 22.03338 | 35 ft | 0 kts | 118° |